createdAt,value
2023-03-22T00:00:20.098Z,26.47
2023-03-22T00:01:20.058Z,26.46
2023-03-22T00:02:20.053Z,26.46
2023-03-22T00:03:20.018Z,26.48
2023-03-22T00:04:19.879Z,26.46
2023-03-22T00:05:19.837Z,26.46
2023-03-22T00:06:19.884Z,26.47
2023-03-22T00:07:19.740Z,26.48
2023-03-22T00:08:19.676Z,26.46
2023-03-22T00:09:19.621Z,26.47
2023-03-22T00:10:19.610Z,26.47
2023-03-22T00:11:19.550Z,26.48
2023-03-22T00:12:19.470Z,26.46
2023-03-22T00:13:19.430Z,26.47
2023-03-22T00:14:19.405Z,26.46
2023-03-22T00:15:19.341Z,26.46
2023-03-22T00:16:19.374Z,26.44
2023-03-22T00:17:19.253Z,26.43
2023-03-22T00:18:19.186Z,26.46
2023-03-22T00:19:19.137Z,26.44
2023-03-22T00:20:20.707Z,26.46
2023-03-22T00:21:19.033Z,26.44
2023-03-22T00:22:18.988Z,26.44
2023-03-22T00:23:18.922Z,26.46
2023-03-22T00:24:18.869Z,26.44
2023-03-22T00:25:18.813Z,26.47
2023-03-22T00:26:18.806Z,26.44
2023-03-22T00:27:18.714Z,26.46
2023-03-22T00:28:18.662Z,26.44
2023-03-22T00:29:18.620Z,26.44
2023-03-22T00:30:18.560Z,26.42
2023-03-22T00:31:18.546Z,26.44
2023-03-22T00:32:18.477Z,26.44
2023-03-22T00:33:18.411Z,26.46
2023-03-22T00:34:18.350Z,26.46
2023-03-22T00:35:18.352Z,26.44
2023-03-22T00:36:18.252Z,26.46
2023-03-22T00:37:18.205Z,26.43
2023-03-22T00:38:18.168Z,26.43
2023-03-22T00:39:18.111Z,26.46
2023-03-22T00:40:18.455Z,26.42
2023-03-22T00:41:18.033Z,26.42
2023-03-22T00:42:17.970Z,26.46
2023-03-22T00:43:17.926Z,26.43
2023-03-22T00:44:17.901Z,26.44
2023-03-22T00:45:17.825Z,26.43
2023-03-22T00:46:17.834Z,26.44
2023-03-22T00:47:17.745Z,26.43
2023-03-22T00:48:17.711Z,26.42
2023-03-22T00:49:17.660Z,26.42
2023-03-22T00:50:17.606Z,26.43
2023-03-22T00:51:17.564Z,26.44
2023-03-22T00:52:17.504Z,26.42
2023-03-22T00:53:17.455Z,26.40
2023-03-22T00:54:17.419Z,26.43
2023-03-22T00:55:17.383Z,26.43
2023-03-22T00:56:17.329Z,26.44
2023-03-22T00:57:17.266Z,26.42
2023-03-22T00:58:17.210Z,26.42
2023-03-22T00:59:17.167Z,26.40
2023-03-22T01:00:17.128Z,26.42
2023-03-22T01:01:17.114Z,26.42
2023-03-22T01:02:17.020Z,26.40
2023-03-22T01:03:17.019Z,26.39
2023-03-22T01:04:16.926Z,26.40
2023-03-22T01:05:16.872Z,26.39
2023-03-22T01:06:16.816Z,26.42
2023-03-22T01:07:16.780Z,26.42
2023-03-22T01:08:16.771Z,26.40
2023-03-22T01:09:16.668Z,26.43
2023-03-22T01:10:16.619Z,26.42
2023-03-22T01:11:16.579Z,26.40
2023-03-22T01:12:16.531Z,26.42
2023-03-22T01:13:17.972Z,26.39
2023-03-22T01:14:16.411Z,26.39
2023-03-22T01:15:16.358Z,26.40
2023-03-22T01:16:16.410Z,26.42
2023-03-22T01:17:16.261Z,26.43
2023-03-22T01:18:16.200Z,26.39
2023-03-22T01:19:16.143Z,26.39
2023-03-22T01:20:16.085Z,26.40
2023-03-22T01:21:16.039Z,26.40
2023-03-22T01:22:15.996Z,26.40
2023-03-22T01:23:15.935Z,26.39
2023-03-22T01:24:15.889Z,26.39
2023-03-22T01:25:15.815Z,26.39
2023-03-22T01:26:15.763Z,26.40
2023-03-22T01:27:15.714Z,26.40
2023-03-22T01:28:15.681Z,26.42
2023-03-22T01:29:15.609Z,26.37
2023-03-22T01:30:15.559Z,26.37
2023-03-22T01:31:15.608Z,26.37
2023-03-22T01:32:15.468Z,26.39
2023-03-22T01:33:15.408Z,26.37
2023-03-22T01:34:15.360Z,26.37
2023-03-22T01:35:15.310Z,26.39
2023-03-22T01:36:15.250Z,26.37
2023-03-22T01:37:15.203Z,26.39
2023-03-22T01:38:15.158Z,26.37
2023-03-22T01:39:15.104Z,26.37
2023-03-22T01:40:15.042Z,26.39
2023-03-22T01:41:14.989Z,26.37
2023-03-22T01:42:14.953Z,26.36
2023-03-22T01:43:14.903Z,26.39
2023-03-22T01:44:14.840Z,26.37
2023-03-22T01:45:14.803Z,26.36
2023-03-22T01:46:14.810Z,26.37
2023-03-22T01:47:14.677Z,26.36
2023-03-22T01:48:14.669Z,26.37
2023-03-22T01:49:14.595Z,26.39
2023-03-22T01:50:14.511Z,26.37
2023-03-22T01:51:14.465Z,26.36
2023-03-22T01:52:14.400Z,26.35
2023-03-22T01:53:14.352Z,26.35
2023-03-22T01:54:14.279Z,26.35
2023-03-22T01:55:14.242Z,26.37
2023-03-22T01:56:14.190Z,26.33
2023-03-22T01:57:14.154Z,26.35
2023-03-22T01:58:14.080Z,26.37
2023-03-22T01:59:14.046Z,26.33
2023-03-22T02:00:13.974Z,26.36
2023-03-22T02:01:13.961Z,26.37
2023-03-22T02:02:13.896Z,26.36
2023-03-22T02:03:13.845Z,26.33
2023-03-22T02:04:13.799Z,26.35
2023-03-22T02:05:13.737Z,26.36
2023-03-22T02:06:13.680Z,26.35
2023-03-22T02:07:13.631Z,26.35
2023-03-22T02:08:13.585Z,26.36
2023-03-22T02:09:13.533Z,26.36
2023-03-22T02:10:13.468Z,26.35
2023-03-22T02:11:13.421Z,26.35
2023-03-22T02:12:13.393Z,26.32
2023-03-22T02:13:13.371Z,26.33
2023-03-22T02:14:13.263Z,26.33
2023-03-22T02:15:13.195Z,26.35
2023-03-22T02:16:13.221Z,26.33
2023-03-22T02:17:13.097Z,26.33
2023-03-22T02:18:13.039Z,26.35
2023-03-22T02:19:12.981Z,26.33
2023-03-22T02:20:12.912Z,26.33
2023-03-22T02:21:12.855Z,26.35
2023-03-22T02:22:12.793Z,26.35
2023-03-22T02:23:12.758Z,26.33
2023-03-22T02:24:12.692Z,26.33
2023-03-22T02:25:12.637Z,26.32
2023-03-22T02:26:12.570Z,26.33
2023-03-22T02:27:12.515Z,26.33
2023-03-22T02:28:12.474Z,26.30
2023-03-22T02:29:12.425Z,26.32
2023-03-22T02:30:12.370Z,26.32
2023-03-22T02:31:12.404Z,26.35
2023-03-22T02:32:12.250Z,26.33
2023-03-22T02:33:12.212Z,26.32
2023-03-22T02:34:12.190Z,26.32
2023-03-22T02:35:12.077Z,26.35
2023-03-22T02:36:12.023Z,26.30
2023-03-22T02:37:11.960Z,26.30
2023-03-22T02:38:11.905Z,26.30
2023-03-22T02:39:11.869Z,26.33
2023-03-22T02:40:11.795Z,26.30
2023-03-22T02:41:11.742Z,26.33
2023-03-22T02:42:11.677Z,26.32
2023-03-22T02:43:11.625Z,26.29
2023-03-22T02:44:11.564Z,26.30
2023-03-22T02:45:11.498Z,26.29
2023-03-22T02:46:11.525Z,26.28
2023-03-22T02:47:11.384Z,26.28
2023-03-22T02:48:11.374Z,26.25
2023-03-22T02:49:11.288Z,26.23
2023-03-22T02:50:11.264Z,26.20
2023-03-22T02:51:11.183Z,26.19
2023-03-22T02:52:11.131Z,26.15
2023-03-22T02:53:11.088Z,26.15
2023-03-22T02:54:11.050Z,26.09
2023-03-22T02:55:10.993Z,26.03
2023-03-22T02:56:10.933Z,26.01
2023-03-22T02:57:10.888Z,25.98
2023-03-22T02:58:10.831Z,25.96
2023-03-22T02:59:10.787Z,25.92
2023-03-22T03:00:10.739Z,25.89
2023-03-22T03:01:10.723Z,25.88
2023-03-22T03:02:10.671Z,25.87
2023-03-22T03:03:10.581Z,25.84
2023-03-22T03:04:10.537Z,25.83
2023-03-22T03:05:10.493Z,25.81
2023-03-22T03:06:10.453Z,25.77
2023-03-22T03:07:10.386Z,25.75
2023-03-22T03:08:10.348Z,25.74
2023-03-22T03:09:10.332Z,25.70
2023-03-22T03:10:10.234Z,25.70
2023-03-22T03:11:10.194Z,25.67
2023-03-22T03:12:10.140Z,25.67
2023-03-22T03:13:10.105Z,25.64
2023-03-22T03:14:10.045Z,25.63
2023-03-22T03:15:10.000Z,25.61
2023-03-22T03:16:09.967Z,25.61
2023-03-22T03:17:09.902Z,25.57
2023-03-22T03:18:09.884Z,25.56
2023-03-22T03:19:09.820Z,25.53
2023-03-22T03:20:09.784Z,25.53
2023-03-22T03:21:09.746Z,25.51
2023-03-22T03:22:09.698Z,25.50
2023-03-22T03:23:09.659Z,25.47
2023-03-22T03:24:09.598Z,25.49
2023-03-22T03:25:09.578Z,25.46
2023-03-22T03:26:09.511Z,25.46
2023-03-22T03:27:09.494Z,25.43
2023-03-22T03:28:09.440Z,25.43
2023-03-22T03:29:09.393Z,25.37
2023-03-22T03:30:09.371Z,25.39
2023-03-22T03:31:09.310Z,25.36
2023-03-22T03:32:09.288Z,25.34
2023-03-22T03:33:09.270Z,25.32
2023-03-22T03:34:09.179Z,25.30
2023-03-22T03:35:09.140Z,25.28
2023-03-22T03:36:09.095Z,25.29
2023-03-22T03:37:09.041Z,25.28
2023-03-22T03:38:08.996Z,25.26
2023-03-22T03:39:08.945Z,25.21
2023-03-22T03:40:08.915Z,25.21
2023-03-22T03:41:08.853Z,25.21
2023-03-22T03:42:08.828Z,25.16
2023-03-22T03:43:08.755Z,25.16
2023-03-22T03:44:08.710Z,25.15
2023-03-22T03:45:08.671Z,25.13
2023-03-22T03:46:08.678Z,25.12
2023-03-22T03:47:08.582Z,25.11
2023-03-22T03:48:08.597Z,25.11
2023-03-22T03:49:08.509Z,25.08
2023-03-22T03:50:08.477Z,25.08
2023-03-22T03:51:08.411Z,25.06
2023-03-22T03:52:08.378Z,25.06
2023-03-22T03:53:08.329Z,25.05
2023-03-22T03:54:08.295Z,25.05
2023-03-22T03:55:08.251Z,25.02
2023-03-22T03:56:08.214Z,25.02
2023-03-22T03:57:08.172Z,24.99
2023-03-22T03:58:08.136Z,24.98
2023-03-22T03:59:08.101Z,24.97
2023-03-22T04:00:08.078Z,24.97
2023-03-22T04:01:08.022Z,24.97
2023-03-22T04:02:08.037Z,24.94
2023-03-22T04:03:07.943Z,24.94
2023-03-22T04:04:07.977Z,24.94
2023-03-22T04:05:07.886Z,24.89
2023-03-22T04:06:07.837Z,24.91
2023-03-22T04:07:07.794Z,24.89
2023-03-22T04:08:07.761Z,24.91
2023-03-22T04:09:07.711Z,24.89
2023-03-22T04:10:07.677Z,24.87
2023-03-22T04:11:07.645Z,24.88
2023-03-22T04:12:07.588Z,24.88
2023-03-22T04:13:07.549Z,24.87
2023-03-22T04:14:07.511Z,24.85
2023-03-22T04:15:07.465Z,24.84
2023-03-22T04:16:07.430Z,24.84
2023-03-22T04:17:07.367Z,24.81
2023-03-22T04:18:07.353Z,24.81
2023-03-22T04:19:07.305Z,24.81
2023-03-22T04:20:07.269Z,24.81
2023-03-22T04:21:07.224Z,24.80
2023-03-22T04:22:07.181Z,24.78
2023-03-22T04:23:07.146Z,24.80
2023-03-22T04:24:07.109Z,24.77
2023-03-22T04:25:07.074Z,24.71
2023-03-22T04:26:07.061Z,24.74
2023-03-22T04:27:07.003Z,24.74
2023-03-22T04:28:06.971Z,24.72
2023-03-22T04:29:06.931Z,24.72
2023-03-22T04:30:06.891Z,24.74
2023-03-22T04:31:06.922Z,24.71
2023-03-22T04:32:06.812Z,24.72
2023-03-22T04:33:06.799Z,24.70
2023-03-22T04:34:06.754Z,24.68
2023-03-22T04:35:06.686Z,24.71
2023-03-22T04:36:06.647Z,24.70
2023-03-22T04:37:06.590Z,24.67
2023-03-22T04:38:06.556Z,24.68
2023-03-22T04:39:06.502Z,24.66
2023-03-22T04:40:06.463Z,24.66
2023-03-22T04:41:06.443Z,24.63
2023-03-22T04:42:06.385Z,24.64
2023-03-22T04:43:06.328Z,24.63
2023-03-22T04:44:06.293Z,24.63
2023-03-22T04:45:06.248Z,24.61
2023-03-22T04:46:06.238Z,24.63
2023-03-22T04:47:06.175Z,24.60
2023-03-22T04:48:06.163Z,24.63
2023-03-22T04:49:06.094Z,24.60
2023-03-22T04:50:06.059Z,24.59
2023-03-22T04:51:06.046Z,24.59
2023-03-22T04:52:05.988Z,24.59
2023-03-22T04:53:05.946Z,24.57
2023-03-22T04:54:05.894Z,24.56
2023-03-22T04:55:05.868Z,24.57
2023-03-22T04:56:05.824Z,24.53
2023-03-22T04:57:05.765Z,24.53
2023-03-22T04:58:05.736Z,24.54
2023-03-22T04:59:05.689Z,24.52
2023-03-22T05:00:05.641Z,24.52
2023-03-22T05:01:05.610Z,24.52
2023-03-22T05:02:05.564Z,24.52
2023-03-22T05:03:05.572Z,24.50
2023-03-22T05:04:05.484Z,24.50
2023-03-22T05:05:05.431Z,24.49
2023-03-22T05:06:05.407Z,24.49
2023-03-22T05:07:05.366Z,24.46
2023-03-22T05:08:05.317Z,24.46
2023-03-22T05:09:05.272Z,24.46
2023-03-22T05:10:05.230Z,24.49
2023-03-22T05:11:05.174Z,24.47
2023-03-22T05:12:05.137Z,24.46
2023-03-22T05:13:05.089Z,24.47
2023-03-22T05:14:05.093Z,24.47
2023-03-22T05:15:05.003Z,24.44
2023-03-22T05:16:04.986Z,24.43
2023-03-22T05:17:04.921Z,24.46
2023-03-22T05:18:04.887Z,24.46
2023-03-22T05:19:04.838Z,24.44
2023-03-22T05:20:04.804Z,24.39
2023-03-22T05:21:04.749Z,24.46
2023-03-22T05:22:04.726Z,24.42
2023-03-22T05:23:04.670Z,24.37
2023-03-22T05:24:04.631Z,24.42
2023-03-22T05:25:04.586Z,24.42
2023-03-22T05:26:04.575Z,24.43
2023-03-22T05:27:04.514Z,24.40
2023-03-22T05:28:04.474Z,24.40
2023-03-22T05:29:04.425Z,24.40
2023-03-22T05:30:04.402Z,24.40
2023-03-22T05:31:04.355Z,24.40
2023-03-22T05:32:04.314Z,24.39
2023-03-22T05:33:04.262Z,24.39
2023-03-22T05:34:04.250Z,24.37
2023-03-22T05:35:04.181Z,24.40
2023-03-22T05:36:04.143Z,24.39
2023-03-22T05:37:04.097Z,24.39
2023-03-22T05:38:04.040Z,24.40
2023-03-22T05:39:04.003Z,24.40
2023-03-22T05:40:03.970Z,24.40
2023-03-22T05:41:03.939Z,24.37
2023-03-22T05:42:03.881Z,24.37
2023-03-22T05:43:03.821Z,24.37
2023-03-22T05:44:03.787Z,24.37
2023-03-22T05:45:03.744Z,24.39
2023-03-22T05:46:03.696Z,24.37
2023-03-22T05:47:03.696Z,24.39
2023-03-22T05:48:03.684Z,24.37
2023-03-22T05:49:03.617Z,24.39
2023-03-22T05:50:03.507Z,24.36
2023-03-22T05:51:03.470Z,24.40
2023-03-22T05:52:03.419Z,24.39
2023-03-22T05:53:03.367Z,24.39
2023-03-22T05:54:03.324Z,24.40
2023-03-22T05:55:03.280Z,24.39
2023-03-22T05:56:03.238Z,24.37
2023-03-22T05:57:03.196Z,24.39
2023-03-22T05:58:03.143Z,24.39
2023-03-22T05:59:03.115Z,24.40
2023-03-22T06:00:03.060Z,24.40
2023-03-22T06:01:03.014Z,24.40
2023-03-22T06:02:02.996Z,24.42
2023-03-22T06:03:02.972Z,24.42
2023-03-22T06:04:02.915Z,24.43
2023-03-22T06:05:02.869Z,24.42
2023-03-22T06:06:02.846Z,24.43
2023-03-22T06:07:02.852Z,24.43
2023-03-22T06:08:02.769Z,24.46
2023-03-22T06:09:16.053Z,24.46
2023-03-22T06:10:03.690Z,24.46
2023-03-22T06:11:02.656Z,24.44
2023-03-22T06:12:02.613Z,24.44
2023-03-22T06:13:02.618Z,24.46
2023-03-22T06:14:02.596Z,24.46
2023-03-22T06:15:02.546Z,24.44
2023-03-22T06:16:02.659Z,24.46
2023-03-22T06:17:02.416Z,24.46
2023-03-22T06:18:02.414Z,24.46
2023-03-22T06:19:02.336Z,24.46
2023-03-22T06:20:02.307Z,24.46
2023-03-22T06:21:02.258Z,24.46
2023-03-22T06:22:02.222Z,24.46
2023-03-22T06:23:02.183Z,24.44
2023-03-22T06:24:02.128Z,24.43
2023-03-22T06:25:02.099Z,24.44
2023-03-22T06:26:02.054Z,24.46
2023-03-22T06:27:02.036Z,24.44
2023-03-22T06:28:01.998Z,24.44
2023-03-22T06:29:01.958Z,24.44
2023-03-22T06:30:01.916Z,24.43
2023-03-22T06:31:01.925Z,24.46
2023-03-22T06:32:01.834Z,24.44
2023-03-22T06:33:01.827Z,24.44
2023-03-22T06:34:01.756Z,24.46
2023-03-22T06:35:01.721Z,24.49
2023-03-22T06:36:01.708Z,24.49
2023-03-22T06:37:01.662Z,24.49
2023-03-22T06:38:01.615Z,24.53
2023-03-22T06:39:01.581Z,24.53
2023-03-22T06:40:01.552Z,24.56
2023-03-22T06:41:01.500Z,24.46
2023-03-22T06:42:01.459Z,24.56
2023-03-22T06:43:05.142Z,24.60
2023-03-22T06:44:02.383Z,24.61
2023-03-22T06:45:01.339Z,24.67
2023-03-22T06:46:01.388Z,24.70
2023-03-22T06:47:01.263Z,24.70
2023-03-22T06:48:01.528Z,24.74
2023-03-22T06:49:01.252Z,24.77
2023-03-22T06:50:01.165Z,24.82
2023-03-22T06:51:01.107Z,24.84
2023-03-22T06:52:01.076Z,24.89
2023-03-22T06:53:01.040Z,24.89
2023-03-22T06:54:00.995Z,24.94
2023-03-22T06:55:00.948Z,24.97
2023-03-22T06:56:00.917Z,25.02
2023-03-22T06:57:00.867Z,24.91
2023-03-22T06:58:00.840Z,24.98
2023-03-22T06:59:00.783Z,25.02
2023-03-22T07:00:00.738Z,25.06
2023-03-22T07:01:00.771Z,25.09
2023-03-22T07:02:00.657Z,25.15
2023-03-22T07:03:00.636Z,25.15
2023-03-22T07:04:00.633Z,25.16
2023-03-22T07:05:00.573Z,25.19
2023-03-22T07:06:00.502Z,25.22
2023-03-22T07:07:00.447Z,25.21
2023-03-22T07:08:00.432Z,25.26
2023-03-22T07:09:00.356Z,25.26
2023-03-22T07:10:00.309Z,25.26
2023-03-22T07:11:00.282Z,25.32
2023-03-22T07:12:00.251Z,25.33
2023-03-22T07:13:00.192Z,25.34
2023-03-22T07:14:00.128Z,25.37
2023-03-22T07:15:00.122Z,25.41
2023-03-22T07:16:00.091Z,25.44
2023-03-22T07:17:00.015Z,25.47
2023-03-22T07:17:59.990Z,25.47
2023-03-22T07:18:59.959Z,25.51
2023-03-22T07:19:59.882Z,25.54
2023-03-22T07:20:59.833Z,25.56
2023-03-22T07:21:59.792Z,25.61
2023-03-22T07:22:59.704Z,25.66
2023-03-22T07:23:59.688Z,25.67
2023-03-22T07:25:01.656Z,25.68
2023-03-22T07:25:59.576Z,25.73
2023-03-22T07:26:59.533Z,25.74
2023-03-22T07:27:59.533Z,25.77
2023-03-22T07:28:59.457Z,25.77
2023-03-22T07:29:59.396Z,25.80
2023-03-22T07:30:59.338Z,25.83
2023-03-22T07:31:59.381Z,25.84
2023-03-22T07:32:59.251Z,25.87
2023-03-22T07:33:59.242Z,25.88
2023-03-22T07:34:59.176Z,25.91
2023-03-22T07:35:59.198Z,25.91
2023-03-22T07:36:59.184Z,25.96
2023-03-22T07:37:59.133Z,25.96
2023-03-22T07:38:59.098Z,25.96
2023-03-22T07:39:59.040Z,25.96
2023-03-22T07:41:58.999Z,26.05
2023-03-22T07:42:58.889Z,26.06
2023-03-22T07:44:58.861Z,26.09
2023-03-22T07:45:58.968Z,26.11
2023-03-22T07:46:58.710Z,26.09
2023-03-22T07:47:58.630Z,26.11
2023-03-22T07:48:58.582Z,26.13
2023-03-22T07:49:58.506Z,26.15
2023-03-22T07:50:58.461Z,26.13
2023-03-22T07:51:58.409Z,26.15
2023-03-22T07:52:58.363Z,26.13
2023-03-22T07:53:58.309Z,26.16
2023-03-22T07:54:58.262Z,26.16
2023-03-22T07:55:58.217Z,26.19
2023-03-22T07:56:58.178Z,26.18
2023-03-22T07:57:58.096Z,26.16
2023-03-22T07:58:58.061Z,26.20
2023-03-22T07:59:57.979Z,26.20
2023-03-22T08:00:57.933Z,26.22
2023-03-22T08:01:57.925Z,26.25
2023-03-22T08:02:57.852Z,26.25
2023-03-22T08:03:57.763Z,26.25
2023-03-22T08:04:57.691Z,26.28
2023-03-22T08:05:57.636Z,26.28
2023-03-22T08:06:57.574Z,26.29
2023-03-22T08:07:57.530Z,26.32
2023-03-22T08:08:57.484Z,26.32
2023-03-22T08:09:58.378Z,26.30
2023-03-22T08:10:57.351Z,26.32
2023-03-22T08:11:57.303Z,26.33
2023-03-22T08:12:57.226Z,26.36
2023-03-22T08:13:57.358Z,26.37
2023-03-22T08:14:57.134Z,26.39
2023-03-22T08:15:57.089Z,26.37
2023-03-22T08:16:56.986Z,26.40
2023-03-22T08:17:56.932Z,26.42
2023-03-22T08:18:56.887Z,26.42
2023-03-22T08:19:56.809Z,26.44
2023-03-22T08:20:56.929Z,26.44
2023-03-22T08:21:56.694Z,26.44
2023-03-22T08:22:56.625Z,26.46
2023-03-22T08:23:56.570Z,26.46
2023-03-22T08:24:56.512Z,26.48
2023-03-22T08:26:56.549Z,26.51
2023-03-22T08:27:56.329Z,26.51
2023-03-22T08:29:56.220Z,26.51
2023-03-22T08:30:56.202Z,26.54
2023-03-22T08:31:56.183Z,26.55
2023-03-22T08:32:56.053Z,26.57
2023-03-22T08:33:56.003Z,26.58
2023-03-22T08:34:55.964Z,26.57
2023-03-22T08:35:55.943Z,26.58
2023-03-22T08:36:55.852Z,26.58
2023-03-22T08:37:55.798Z,25.99
2023-03-22T08:38:55.750Z,26.29
2023-03-22T08:39:55.786Z,26.32
2023-03-22T08:40:55.640Z,26.32
2023-03-22T08:41:55.609Z,26.06
2023-03-22T08:42:55.563Z,26.20
2023-03-22T08:43:55.487Z,26.23
2023-03-22T08:44:55.460Z,26.22
2023-03-22T08:45:55.447Z,26.19
2023-03-22T08:46:55.344Z,26.16
2023-03-22T08:47:55.292Z,26.15
2023-03-22T08:48:55.249Z,26.15
2023-03-22T08:49:55.207Z,26.11
2023-03-22T08:50:55.164Z,26.09
2023-03-22T08:51:55.109Z,26.06
2023-03-22T08:52:55.055Z,25.98
2023-03-22T08:53:55.000Z,26.01
2023-03-22T08:54:54.980Z,25.98
2023-03-22T08:55:54.911Z,25.99
2023-03-22T08:56:54.878Z,25.98
2023-03-22T08:57:54.825Z,25.98
2023-03-22T08:58:54.782Z,25.96
2023-03-22T08:59:54.734Z,25.96
2023-03-22T09:00:54.726Z,25.96
2023-03-22T09:01:54.711Z,25.92
2023-03-22T09:02:54.610Z,25.94
2023-03-22T09:03:54.569Z,25.91
2023-03-22T09:04:54.600Z,25.91
2023-03-22T09:05:54.460Z,25.92
2023-03-22T09:06:54.424Z,25.88
2023-03-22T09:07:54.380Z,25.87
2023-03-22T09:08:54.404Z,25.36
2023-03-22T09:09:54.291Z,25.54
2023-03-22T09:10:54.249Z,25.57
2023-03-22T09:11:54.206Z,25.56
2023-03-22T09:12:54.176Z,25.58
2023-03-22T09:13:54.104Z,25.46
2023-03-22T09:14:55.834Z,25.53
2023-03-22T09:15:54.072Z,25.56
2023-03-22T09:16:54.007Z,25.54
2023-03-22T09:17:53.949Z,24.57
2023-03-22T09:18:53.930Z,25.05
2023-03-22T09:20:05.830Z,25.12
2023-03-22T09:20:54.857Z,25.15
2023-03-22T09:21:53.788Z,24.88
2023-03-22T09:22:53.767Z,24.46
2023-03-22T09:23:53.720Z,24.61
2023-03-22T09:24:53.694Z,24.63
2023-03-22T09:25:53.656Z,24.57
2023-03-22T09:26:53.605Z,24.67
2023-03-22T09:27:53.550Z,24.70
2023-03-22T09:28:53.517Z,24.42
2023-03-22T09:29:53.473Z,23.68
2023-03-22T09:30:53.483Z,24.01
2023-03-22T09:37:53.271Z,23.89
2023-03-22T09:38:53.114Z,23.84
2023-03-22T09:39:53.077Z,24.05
2023-03-22T09:40:53.044Z,24.15
2023-03-22T09:41:52.988Z,24.25
2023-03-22T09:42:52.944Z,24.30
2023-03-22T09:43:52.913Z,24.42
2023-03-22T09:44:52.834Z,24.43
2023-03-22T09:45:52.894Z,24.42
2023-03-22T09:46:52.784Z,24.56
2023-03-22T09:47:52.758Z,24.39
2023-03-22T09:48:52.662Z,24.37
2023-03-22T09:49:54.171Z,24.53
2023-03-22T09:50:52.583Z,24.64
2023-03-22T09:51:52.609Z,24.75
2023-03-22T09:52:52.528Z,24.84
2023-03-22T09:53:52.447Z,24.91
2023-03-22T09:54:53.380Z,24.99
2023-03-22T09:55:52.444Z,25.11
2023-03-22T09:56:52.325Z,25.18
2023-03-22T09:57:52.303Z,25.26
2023-03-22T09:58:52.294Z,25.33
2023-03-22T09:59:52.322Z,25.40
2023-03-22T10:00:52.359Z,25.46
2023-03-22T10:01:52.432Z,25.53
2023-03-22T10:02:52.121Z,25.56
2023-03-22T10:03:52.058Z,25.64
2023-03-22T10:04:51.977Z,25.70
2023-03-22T10:05:51.977Z,25.73
2023-03-22T10:06:51.902Z,25.77
2023-03-22T10:07:51.862Z,25.83
2023-03-22T10:08:51.808Z,25.87
2023-03-22T10:09:51.757Z,25.91
2023-03-22T10:10:51.705Z,25.95
2023-03-22T10:11:51.675Z,26.01
2023-03-22T10:12:51.618Z,26.02
2023-03-22T10:13:51.585Z,26.06
2023-03-22T10:14:51.553Z,26.08
2023-03-22T10:15:51.568Z,26.12
2023-03-22T10:16:51.440Z,26.15
2023-03-22T10:17:51.421Z,26.18
2023-03-22T10:18:51.355Z,26.20
2023-03-22T10:19:51.312Z,26.26
2023-03-22T10:20:51.320Z,26.30
2023-03-22T10:21:51.273Z,26.32
2023-03-22T10:22:53.268Z,26.36
2023-03-22T10:23:51.114Z,26.40
2023-03-22T10:24:51.079Z,26.43
2023-03-22T10:25:51.040Z,26.48
2023-03-22T10:26:51.163Z,26.48
2023-03-22T10:27:50.925Z,26.50
2023-03-22T10:28:50.866Z,26.58
2023-03-22T10:29:50.863Z,26.60
2023-03-22T10:30:50.853Z,26.64
2023-03-22T10:31:50.773Z,26.67
2023-03-22T10:32:57.630Z,26.68
2023-03-22T10:33:51.618Z,26.71
2023-03-22T10:34:50.569Z,26.73
2023-03-22T10:35:50.583Z,26.75
2023-03-22T10:36:50.488Z,26.78
2023-03-22T10:37:50.438Z,26.82
2023-03-22T10:38:50.359Z,26.85
2023-03-22T10:39:50.300Z,26.87
2023-03-22T10:40:50.254Z,26.89
2023-03-22T10:41:50.207Z,26.95
2023-03-22T10:42:50.133Z,26.92
2023-03-22T10:43:50.080Z,27.03
2023-03-22T10:44:50.119Z,27.08
2023-03-22T10:45:49.982Z,27.10
2023-03-22T10:46:49.972Z,27.16
2023-03-22T10:47:49.932Z,27.16
2023-03-22T10:48:49.808Z,27.13
2023-03-22T10:49:49.767Z,27.12
2023-03-22T10:50:49.689Z,27.12
2023-03-22T10:51:49.648Z,27.12
2023-03-22T10:52:49.558Z,27.12
2023-03-22T10:53:49.508Z,27.16
2023-03-22T10:54:49.454Z,27.15
2023-03-22T10:55:49.394Z,27.19
2023-03-22T10:56:49.346Z,27.21
2023-03-22T10:57:49.299Z,27.22
2023-03-22T10:58:49.222Z,27.22
2023-03-22T10:59:49.151Z,27.22
2023-03-22T11:00:49.244Z,27.25
2023-03-22T11:01:49.217Z,27.26
2023-03-22T11:02:49.023Z,27.29
2023-03-22T14:19:39.471Z,28.18
2023-03-22T14:20:39.694Z,28.15
2023-03-22T14:21:39.330Z,28.18
2023-03-22T14:53:20.379Z,28.12
2023-03-22T14:54:20.409Z,28.12
2023-03-22T14:55:20.313Z,28.12
2023-03-22T14:56:20.257Z,28.11
2023-03-22T14:57:28.321Z,28.09
2023-03-22T14:58:20.202Z,28.12
2023-03-22T15:02:08.117Z,28.08
2023-03-22T15:03:08.172Z,28.11
2023-03-22T15:04:07.996Z,28.08
2023-03-22T15:05:07.972Z,28.08
2023-03-22T15:10:07.783Z,28.06
2023-03-22T15:12:55.689Z,28.03
2023-03-22T15:13:55.647Z,28.05
2023-03-22T15:14:55.612Z,28.08
2023-03-22T15:18:55.444Z,28.05
2023-03-22T15:22:43.319Z,28.05
2023-03-22T15:23:43.293Z,28.03
2023-03-22T15:24:43.256Z,28.03
2023-03-22T15:25:43.210Z,28.05
2023-03-22T15:28:43.115Z,28.05
2023-03-22T15:33:30.972Z,27.96
2023-03-22T15:34:30.930Z,27.98
2023-03-22T15:35:30.913Z,27.96
2023-03-22T15:39:18.821Z,27.91
2023-03-22T15:40:18.816Z,27.91
2023-03-22T15:42:18.787Z,27.91
2023-03-22T15:43:18.779Z,27.92
2023-03-22T15:45:18.764Z,27.89
2023-03-22T15:48:06.695Z,27.87
2023-03-22T15:50:06.611Z,27.85
2023-03-22T15:51:06.565Z,27.87
2023-03-22T15:52:06.506Z,27.87
2023-03-22T15:55:06.387Z,27.85
2023-03-22T15:56:06.346Z,27.83
2023-03-22T15:59:54.209Z,27.80
2023-03-22T16:00:54.252Z,27.78
2023-03-22T16:03:54.143Z,27.75
2023-03-22T16:04:54.023Z,27.77
2023-03-22T16:05:53.974Z,27.75
2023-03-22T16:10:41.808Z,27.72
2023-03-22T16:11:41.781Z,27.71
2023-03-22T16:14:41.636Z,27.72
2023-03-22T16:15:41.997Z,27.69
2023-03-22T16:21:29.393Z,27.67
2023-03-22T16:23:29.315Z,27.67
2023-03-22T16:24:29.272Z,27.65
2023-03-22T16:25:29.228Z,27.65
2023-03-22T16:28:17.150Z,27.61
2023-03-22T16:29:17.109Z,27.64
2023-03-22T16:31:17.079Z,27.60
2023-03-22T16:32:17.041Z,27.60
2023-03-22T16:33:17.009Z,27.60
2023-03-22T16:34:16.990Z,27.61
2023-03-22T16:39:04.850Z,27.56
2023-03-22T16:43:04.638Z,27.54
2023-03-22T16:44:04.522Z,27.56
2023-03-22T16:45:04.464Z,27.54
2023-03-22T16:49:52.282Z,27.51
2023-03-22T16:52:52.125Z,27.51
2023-03-22T16:53:52.069Z,27.49
2023-03-22T16:54:52.025Z,27.49
2023-03-22T16:55:51.974Z,27.46
2023-03-22T17:00:40.038Z,27.46
2023-03-22T17:02:39.614Z,27.43
2023-03-22T17:04:39.507Z,27.40
2023-03-22T17:05:39.444Z,27.40
2023-03-22T17:06:39.381Z,27.40
2023-03-22T17:11:27.203Z,27.32
2023-03-22T17:13:27.155Z,27.32
2023-03-22T17:14:27.113Z,27.34
2023-03-22T17:15:27.082Z,27.33
2023-03-22T17:20:14.950Z,27.30
2023-03-22T17:21:14.930Z,27.30
2023-03-22T17:22:14.904Z,27.29
2023-03-22T17:23:14.863Z,27.29
2023-03-22T17:26:14.778Z,27.28
2023-03-22T17:29:02.710Z,27.25
2023-03-22T17:31:02.686Z,27.25
2023-03-22T17:32:09.612Z,27.25
2023-03-22T17:33:04.829Z,27.25
2023-03-22T17:35:02.536Z,27.25
2023-03-22T17:36:02.672Z,27.25
2023-03-22T17:37:02.480Z,27.22
2023-03-22T17:41:50.299Z,27.23
2023-03-22T17:42:50.260Z,27.21
2023-03-22T17:43:50.215Z,27.22
2023-03-22T17:47:21.300Z,27.17
2023-03-22T17:50:39.138Z,27.19
2023-03-22T17:52:38.977Z,27.19
2023-03-22T17:55:08.129Z,27.19
2023-03-22T17:56:09.687Z,27.17
2023-03-22T17:57:12.262Z,27.17
2023-03-22T17:59:27.862Z,27.16
2023-03-22T18:02:28.420Z,27.16
2023-03-22T18:03:27.694Z,27.16
2023-03-22T18:04:27.687Z,27.16
2023-03-22T18:05:33.706Z,27.19
2023-03-22T18:06:28.579Z,27.16
2023-03-22T18:10:15.478Z,27.16
2023-03-22T18:13:15.402Z,27.15
2023-03-22T18:14:24.930Z,27.13
2023-03-22T18:15:16.357Z,27.16
2023-03-22T18:16:15.338Z,27.16
2023-03-22T18:20:14.863Z,27.12
2023-03-22T18:21:04.188Z,27.13
2023-03-22T18:22:03.176Z,27.15
2023-03-22T18:25:03.067Z,27.13
2023-03-22T18:26:03.045Z,27.10
2023-03-22T18:31:50.892Z,27.10
2023-03-22T18:34:50.811Z,27.10
2023-03-22T18:35:50.849Z,27.10
2023-03-22T18:37:50.728Z,27.08
2023-03-22T18:43:38.651Z,27.05
2023-03-22T18:44:38.631Z,27.08
2023-03-22T18:47:38.593Z,27.05
2023-03-22T18:50:26.557Z,27.05